sensor_id;sensor_type;location;lat;lon;timestamp;pressure;altitude;pressure_sealevel;temperature;humidity
54918;BME280;40818;50.562;7.454;2022-09-19T06:23:30;97948.06;;;7.51;100.00
54918;BME280;40818;50.562;7.454;2022-09-19T06:28:33;97951.47;;;7.86;100.00
54918;BME280;40818;50.562;7.454;2022-09-19T06:33:41;97971.59;;;7.97;100.00
54918;BME280;40818;50.562;7.454;2022-09-19T06:39:10;97971.22;;;8.05;100.00
54918;BME280;40818;50.562;7.454;2022-09-19T06:44:15;97979.06;;;8.19;100.00
54918;BME280;40818;50.562;7.454;2022-09-19T06:49:57;97979.34;;;8.31;100.00
54918;BME280;40818;50.562;7.454;2022-09-19T06:55:13;97987.63;;;8.37;100.00
54918;BME280;40818;50.562;7.454;2022-09-19T07:00:20;97985.72;;;8.41;100.00
54918;BME280;40818;50.562;7.454;2022-09-19T07:05:26;97998.88;;;8.54;100.00
54918;BME280;40818;50.562;7.454;2022-09-19T07:10:51;97999.22;;;8.64;100.00
54918;BME280;40818;50.562;7.454;2022-09-19T07:15:57;98000.47;;;8.73;100.00
54918;BME280;40818;50.562;7.454;2022-09-19T07:21:04;98009.34;;;8.68;100.00
54918;BME280;40818;50.562;7.454;2022-09-19T07:26:17;98013.03;;;8.64;100.00
54918;BME280;40818;50.562;7.454;2022-09-19T07:31:23;98014.88;;;8.78;100.00
54918;BME280;40818;50.562;7.454;2022-09-19T07:36:26;98020.56;;;9.01;100.00
54918;BME280;40818;50.562;7.454;2022-09-19T07:41:33;98021.53;;;9.14;100.00
54918;BME280;40818;50.562;7.454;2022-09-19T07:47:12;98036.44;;;9.11;100.00
54918;BME280;40818;50.562;7.454;2022-09-19T07:52:37;98040.41;;;9.32;100.00
54918;BME280;40818;50.562;7.454;2022-09-19T07:57:54;98050.09;;;9.61;100.00
54918;BME280;40818;50.562;7.454;2022-09-19T08:03:11;98062.31;;;9.89;100.00
54918;BME280;40818;50.562;7.454;2022-09-19T08:08:16;98057.72;;;10.39;100.00
54918;BME280;40818;50.562;7.454;2022-09-19T08:13:22;98068.22;;;10.81;100.00
54918;BME280;40818;50.562;7.454;2022-09-19T08:18:28;98068.56;;;10.89;100.00
54918;BME280;40818;50.562;7.454;2022-09-19T08:23:31;98068.56;;;11.03;100.00
54918;BME280;40818;50.562;7.454;2022-09-19T08:28:39;98076.09;;;11.08;100.00
54918;BME280;40818;50.562;7.454;2022-09-19T08:33:43;98083.03;;;11.22;100.00
54918;BME280;40818;50.562;7.454;2022-09-19T08:38:51;98088.22;;;11.22;100.00
54918;BME280;40818;50.562;7.454;2022-09-19T08:44:01;98079.28;;;11.26;100.00
54918;BME280;40818;50.562;7.454;2022-09-19T08:49:11;98087.66;;;11.17;100.00
54918;BME280;40818;50.562;7.454;2022-09-19T08:54:19;98094.53;;;11.03;100.00
54918;BME280;40818;50.562;7.454;2022-09-19T08:59:33;98097.63;;;10.96;100.00
54918;BME280;40818;50.562;7.454;2022-09-19T09:04:40;98103.72;;;11.09;100.00
54918;BME280;40818;50.562;7.454;2022-09-19T09:09:58;98104.38;;;11.13;100.00
54918;BME280;40818;50.562;7.454;2022-09-19T09:15:17;98111.34;;;11.12;100.00
54918;BME280;40818;50.562;7.454;2022-09-19T09:20:36;98100.16;;;11.39;100.00
54918;BME280;40818;50.562;7.454;2022-09-19T09:25:45;98110.47;;;11.68;100.00
54918;BME280;40818;50.562;7.454;2022-09-19T09:30:59;98106.31;;;11.51;100.00
54918;BME280;40818;50.562;7.454;2022-09-19T09:36:11;98105.91;;;11.44;100.00
54918;BME280;40818;50.562;7.454;2022-09-19T09:41:21;98112.19;;;11.54;100.00
54918;BME280;40818;50.562;7.454;2022-09-19T09:46:50;98110.22;;;11.58;100.00
54918;BME280;40818;50.562;7.454;2022-09-19T09:52:10;98120.69;;;11.29;100.00
54918;BME280;40818;50.562;7.454;2022-09-19T09:57:26;98127.16;;;11.36;100.00
54918;BME280;40818;50.562;7.454;2022-09-19T10:02:45;98123.38;;;11.27;100.00
54918;BME280;40818;50.562;7.454;2022-09-19T10:08:11;98124.00;;;11.31;100.00
54918;BME280;40818;50.562;7.454;2022-09-19T10:13:23;98113.19;;;11.52;100.00
54918;BME280;40818;50.562;7.454;2022-09-19T10:18:41;98116.94;;;11.75;100.00
54918;BME280;40818;50.562;7.454;2022-09-19T10:23:49;98118.19;;;11.97;100.00
54918;BME280;40818;50.562;7.454;2022-09-19T10:28:57;98111.25;;;12.23;100.00
54918;BME280;40818;50.562;7.454;2022-09-19T10:34:26;98111.25;;;12.10;100.00
54918;BME280;40818;50.562;7.454;2022-09-19T10:39:41;98109.88;;;12.04;100.00
54918;BME280;40818;50.562;7.454;2022-09-19T10:44:51;98115.41;;;12.00;100.00
54918;BME280;40818;50.562;7.454;2022-09-19T10:50:01;98118.16;;;12.24;100.00
54918;BME280;40818;50.562;7.454;2022-09-19T10:55:22;98114.75;;;12.49;100.00
54918;BME280;40818;50.562;7.454;2022-09-19T11:00:30;98110.06;;;12.80;100.00
54918;BME280;40818;50.562;7.454;2022-09-19T11:06:02;98108.88;;;13.10;100.00
54918;BME280;40818;50.562;7.454;2022-09-19T11:11:25;98099.53;;;13.31;100.00
54918;BME280;40818;50.562;7.454;2022-09-19T11:16:42;98099.00;;;13.52;100.00
54918;BME280;40818;50.562;7.454;2022-09-19T11:22:12;98100.78;;;13.52;100.00
54918;BME280;40818;50.562;7.454;2022-09-19T11:27:27;98111.09;;;13.77;100.00
54918;BME280;40818;50.562;7.454;2022-09-19T11:32:48;98096.75;;;13.83;100.00
54918;BME280;40818;50.562;7.454;2022-09-19T11:38:20;98104.72;;;14.06;100.00
54918;BME280;40818;50.562;7.454;2022-09-19T11:43:44;98104.41;;;14.80;100.00
54918;BME280;40818;50.562;7.454;2022-09-19T11:49:24;98103.47;;;15.59;100.00
54918;BME280;40818;50.562;7.454;2022-09-19T11:54:45;98091.34;;;16.34;98.40
54918;BME280;40818;50.562;7.454;2022-09-19T12:00:00;98081.66;;;16.13;91.85
54918;BME280;40818;50.562;7.454;2022-09-19T12:05:26;98080.63;;;16.04;92.97
54918;BME280;40818;50.562;7.454;2022-09-19T12:10:37;98081.09;;;16.31;88.60
54918;BME280;40818;50.562;7.454;2022-09-19T12:15:47;98071.97;;;16.77;87.08
54918;BME280;40818;50.562;7.454;2022-09-19T12:20:55;98066.63;;;16.58;84.53
54918;BME280;40818;50.562;7.454;2022-09-19T12:26:06;98074.16;;;16.20;85.21
54918;BME280;40818;50.562;7.454;2022-09-19T12:31:14;98079.53;;;15.75;84.23
54918;BME280;40818;50.562;7.454;2022-09-19T12:36:26;98075.56;;;15.92;84.81
54918;BME280;40818;50.562;7.454;2022-09-19T12:41:42;98066.84;;;15.70;83.26
54918;BME280;40818;50.562;7.454;2022-09-19T12:46:54;98061.81;;;15.67;85.12
54918;BME280;40818;50.562;7.454;2022-09-19T12:52:20;98083.44;;;15.48;80.76
54918;BME280;40818;50.562;7.454;2022-09-19T12:57:32;98071.56;;;16.09;76.58
54918;BME280;40818;50.562;7.454;2022-09-19T13:02:43;98069.03;;;16.40;70.76
54918;BME280;40818;50.562;7.454;2022-09-19T13:07:52;98061.97;;;16.92;68.98
54918;BME280;40818;50.562;7.454;2022-09-19T13:13:03;98058.88;;;17.18;69.99
54918;BME280;40818;50.562;7.454;2022-09-19T13:18:12;98067.22;;;17.43;66.50
54918;BME280;40818;50.562;7.454;2022-09-19T13:23:29;98073.66;;;17.09;64.57
54918;BME280;40818;50.562;7.454;2022-09-19T13:28:47;98073.66;;;16.88;65.42
54918;BME280;40818;50.562;7.454;2022-09-19T13:33:53;98079.88;;;16.87;67.77
54918;BME280;40818;50.562;7.454;2022-09-19T13:38:58;98073.56;;;16.68;69.22
54918;BME280;40818;50.562;7.454;2022-09-19T13:44:13;98057.59;;;16.71;65.88
54918;BME280;40818;50.562;7.454;2022-09-19T13:49:25;98060.09;;;16.52;65.18
54918;BME280;40818;50.562;7.454;2022-09-19T13:54:36;98040.06;;;16.41;66.28
54918;BME280;40818;50.562;7.454;2022-09-19T13:59:53;98049.66;;;16.10;68.48
54918;BME280;40818;50.562;7.454;2022-09-19T14:05:04;98094.03;;;15.46;69.74
54918;BME280;40818;50.562;7.454;2022-09-19T14:10:19;98113.22;;;13.96;77.72
54918;BME280;40818;50.562;7.454;2022-09-19T14:15:43;98110.84;;;13.06;87.82
54918;BME280;40818;50.562;7.454;2022-09-19T14:20:48;98113.38;;;12.31;95.03
54918;BME280;40818;50.562;7.454;2022-09-19T14:25:55;98114.19;;;11.91;100.00
54918;BME280;40818;50.562;7.454;2022-09-19T14:31:12;98122.53;;;11.69;100.00
54918;BME280;40818;50.562;7.454;2022-09-19T14:36:26;98106.16;;;11.12;100.00
54918;BME280;40818;50.562;7.454;2022-09-19T14:41:43;98109.66;;;10.82;100.00
54918;BME280;40818;50.562;7.454;2022-09-19T14:46:57;98108.19;;;10.92;100.00
54918;BME280;40818;50.562;7.454;2022-09-19T14:52:04;98113.66;;;10.88;100.00
54918;BME280;40818;50.562;7.454;2022-09-19T14:57:14;98108.81;;;10.96;100.00
54918;BME280;40818;50.562;7.454;2022-09-19T15:02:26;98102.41;;;10.73;100.00
54918;BME280;40818;50.562;7.454;2022-09-19T15:07:37;98110.31;;;10.71;100.00
54918;BME280;40818;50.562;7.454;2022-09-19T15:12:42;98108.34;;;10.46;100.00
54918;BME280;40818;50.562;7.454;2022-09-19T15:17:51;98101.78;;;10.24;100.00
54918;BME280;40818;50.562;7.454;2022-09-19T15:22:55;98098.63;;;10.19;100.00
54918;BME280;40818;50.562;7.454;2022-09-19T15:28:01;98100.03;;;10.25;100.00
54918;BME280;40818;50.562;7.454;2022-09-19T15:33:10;98100.75;;;10.43;100.00
54918;BME280;40818;50.562;7.454;2022-09-19T15:38:21;98096.13;;;10.48;100.00
54918;BME280;40818;50.562;7.454;2022-09-19T15:43:27;98096.22;;;10.47;100.00
54918;BME280;40818;50.562;7.454;2022-09-19T15:48:44;98097.75;;;10.49;100.00
54918;BME280;40818;50.562;7.454;2022-09-19T15:53:48;98095.34;;;10.46;100.00
54918;BME280;40818;50.562;7.454;2022-09-19T15:58:54;98097.03;;;10.62;100.00
54918;BME280;40818;50.562;7.454;2022-09-19T16:04:10;98112.06;;;10.85;100.00
54918;BME280;40818;50.562;7.454;2022-09-19T16:09:16;98114.69;;;11.00;100.00
54918;BME280;40818;50.562;7.454;2022-09-19T16:14:22;98113.28;;;11.08;100.00
54918;BME280;40818;50.562;7.454;2022-09-19T16:19:44;98113.53;;;11.18;100.00
54918;BME280;40818;50.562;7.454;2022-09-19T16:24:50;98113.34;;;11.21;100.00
54918;BME280;40818;50.562;7.454;2022-09-19T16:29:55;98125.22;;;11.25;100.00
54918;BME280;40818;50.562;7.454;2022-09-19T16:35:03;98123.53;;;11.24;100.00
54918;BME280;40818;50.562;7.454;2022-09-19T16:40:20;98119.81;;;11.28;100.00
54918;BME280;40818;50.562;7.454;2022-09-19T16:45:36;98124.31;;;11.26;100.00
54918;BME280;40818;50.562;7.454;2022-09-19T16:50:43;98137.69;;;11.20;100.00
54918;BME280;40818;50.562;7.454;2022-09-19T16:55:47;98136.22;;;11.16;100.00
54918;BME280;40818;50.562;7.454;2022-09-19T17:00:51;98144.66;;;11.05;100.00
54918;BME280;40818;50.562;7.454;2022-09-19T17:05:58;98135.94;;;11.06;100.00
54918;BME280;40818;50.562;7.454;2022-09-19T17:11:03;98135.00;;;10.93;100.00
54918;BME280;40818;50.562;7.454;2022-09-19T17:16:08;98136.47;;;10.97;100.00
54918;BME280;40818;50.562;7.454;2022-09-19T17:21:17;98142.69;;;10.95;100.00
54918;BME280;40818;50.562;7.454;2022-09-19T17:26:21;98140.44;;;10.74;100.00
54918;BME280;40818;50.562;7.454;2022-09-19T17:31:24;98145.66;;;10.74;100.00
54918;BME280;40818;50.562;7.454;2022-09-19T17:36:31;98150.66;;;10.77;100.00
